Flight Track Log - Related Links

Times and Time Zones

All times are in EDT time to prevent confusion due to time zone crossing. See the EGF4247 flight status page for this flight to view local times or setup timezone preferences in your user account.

Time Position Orientation Groundspeed Altitude Reporting Facility
EDT Latitude Longitude Course Direction KTS MPH feet Rate Location/Type
Sun 03:48:24 PM 42.9167 -78.7500 255° West 180 207 1,500  Level Buffalo TRACON
Sun 03:49:42 PM 42.9000 -78.8333 255° West 226 260 4,400 2,074 Climbing Buffalo TRACON
Sun 03:50:40 PM 42.9500 -78.8833 324° Northwest 230 265 6,200 2,205 Climbing Toronto Center
Sun 03:51:39 PM 42.9833 -78.9667 299° West 260 299 8,700 2,269 Climbing Toronto Center
Sun 03:52:39 PM 43.0000 -79.0667 283° West 270 311 10,700 1,700 Climbing Toronto Center
Sun 03:53:39 PM 43.0167 -79.1833 281° West 290 334 12,100 1,250 Climbing Toronto Center
Sun 03:54:39 PM 43.0167 -79.2833 270° West 320 368 13,200 1,300 Climbing Toronto Center
Sun 03:55:39 PM 43.0167 -79.4333 270° West 330 380 14,700 1,450 Climbing Toronto Center
Sun 03:56:39 PM 43.0167 -79.5500 270° West 330 380 16,100 1,450 Climbing Toronto Center
Sun 03:57:39 PM 43.0167 -79.6833 270° West 330 380 17,600 1,200 Climbing Toronto Center
Sun 03:58:39 PM 43.0167 -79.8000 270° West 330 380 18,500 1,000 Climbing Toronto Center
Sun 03:59:39 PM 43.0167 -79.9333 270° West 350 403 19,600 1,000 Climbing Toronto Center
Sun 04:00:39 PM 43.0167 -80.0667 270° West 360 414 20,500 950 Climbing Toronto Center
Sun 04:01:39 PM 43.0167 -80.2000 270° West 360 414 21,500 950 Climbing Toronto Center
Sun 04:02:39 PM 43.0333 -80.3333 280° West 370 426 22,400 950 Climbing Toronto Center
Sun 04:03:39 PM 43.0333 -80.5000 270° West 380 437 23,400 942 Climbing Toronto Center
Sun 04:04:40 PM 43.0333 -80.6333 270° West 380 437 24,300 950 Climbing Toronto Center
Sun 04:05:39 PM 43.0333 -80.8000 270° West 380 437 25,300 1,008 Climbing Toronto Center
Sun 04:06:39 PM 43.0167 -80.9333 260° West 380 437 26,300 1,000 Climbing Toronto Center
Sun 04:07:39 PM 43.0167 -81.0667 270° West 380 437 27,300 850 Climbing Toronto Center
Sun 04:08:39 PM 43.0167 -81.2000 270° West 380 437 28,000 347 Climbing Toronto Center
Sun 04:09:40 PM 43.0167 -81.3667 270° West 390 449 28,000  Level Toronto Center
Sun 04:10:39 PM 43.0167 -81.5333 270° West 400 460 28,000  Level Toronto Center
Sun 04:11:39 PM 43.0167 -81.6667 270° West 410 472 28,000  Level Toronto Center
Sun 04:12:39 PM 43.0167 -81.8167 270° West 420 483 28,000  Level Toronto Center
Sun 04:13:39 PM 43.0000 -81.9833 262° West 420 483 28,000  Level Toronto Center
Sun 04:14:39 PM 43.0000 -82.1667 270° West 420 483 28,000  Level Toronto Center
Sun 04:15:39 PM 43.0000 -82.3000 270° West 420 483 28,000  Level Toronto Center
Sun 04:16:39 PM 43.0000 -82.4833 270° West 420 483 28,000  Level Toronto Center
Sun 04:17:39 PM 43.0000 -82.6167 270° West 420 483 28,000  Level Toronto Center
Sun 04:18:31 PM 43.0003 -82.7633 270° West 420 483 28,000  Level Cleveland Center
Sun 04:19:31 PM 42.9950 -82.9222 267° West 420 483 28,000  Level Cleveland Center
Sun 04:20:31 PM 42.9875 -83.0836 266° West 420 483 28,000  Level Cleveland Center
Sun 04:21:31 PM 42.9839 -83.2425 268° West 420 483 28,000  Level Cleveland Center
Sun 04:22:31 PM 42.9781 -83.4011 267° West 420 483 28,000  Level Cleveland Center
Sun 04:23:31 PM 42.9714 -83.5797 267° West 420 483 28,000  Level Cleveland Center
Sun 04:24:31 PM 42.9653 -83.7383 267° West 420 483 28,000  Level Cleveland Center
Sun 04:25:31 PM 42.9525 -83.8936 264° West 420 483 28,000  Level Cleveland Center
Sun 04:26:31 PM 42.9356 -84.0489 262° West 420 483 28,000  Level Cleveland Center
Sun 04:28:01 PM 42.9153 -84.2761 263° West 415 478 28,000  Level Chicago Center
Sun 04:29:03 PM 42.8994 -84.4308 262° West 413 475 28,000  Level Chicago Center
Sun 04:30:05 PM 42.8836 -84.5844 262° West 410 472 28,000  Level Chicago Center
Sun 04:31:07 PM 42.8681 -84.7397 262° West 414 476 28,000  Level Chicago Center
Sun 04:32:09 PM 42.8508 -84.8939 261° West 414 476 28,000  Level Chicago Center
Sun 04:33:11 PM 42.8356 -85.0469 262° West 411 473 28,000  Level Chicago Center
Sun 04:34:13 PM 42.8153 -85.2322 262° West 411 473 28,000 -290 Level Chicago Center
Sun 04:35:15 PM 42.7986 -85.3881 262° West 414 476 27,400 -816 Descending Chicago Center
Sun 04:36:18 PM 42.7792 -85.5442 260° West 416 479 26,300 -1,008 Descending Chicago Center
Sun 04:37:20 PM 42.7506 -85.6944 256° West 410 472 25,300 -1,210 Descending Chicago Center
Sun 04:38:22 PM 42.7236 -85.8483 257° West 415 478 23,800 -1,500 Descending Chicago Center
Sun 04:39:24 PM 42.6950 -86.0022 256° West 417 480 22,200 -1,597 Descending Chicago Center
Sun 04:40:26 PM 42.6692 -86.1475 256° West 398 458 20,500 -1,742 Descending Chicago Center
Sun 04:41:28 PM 42.6361 -86.3203 255° West 392 451 18,600 -1,742 Descending Chicago Center
Sun 04:42:30 PM 42.6086 -86.4586 255° West 383 441 16,900 -1,645 Descending Chicago Center
Sun 04:43:32 PM 42.5844 -86.5950 257° West 373 429 15,200 -1,645 Descending Chicago Center
Sun 04:44:34 PM 42.5583 -86.7319 256° West 373 429 13,500 -1,645 Descending Chicago Center
Sun 04:45:36 PM 42.5244 -86.8617 251° West 367 422 11,800 -1,452 Descending Chicago Center
Sun 04:46:38 PM 42.4911 -86.9850 250° West 353 406 10,500 -1,258 Descending Chicago Center
Sun 04:47:40 PM 42.4569 -87.1069 249° West 288 331 9,200 -720 Descending Chicago Center
Sun 04:48:43 PM 42.4236 -87.1975 244° Southwest 272 313 9,000 -288 Descending Chicago Center
Sun 04:49:45 PM 42.3883 -87.2897 243° Southwest 275 316 8,600 -677 Descending Chicago Center
Sun 04:50:47 PM 42.3553 -87.3806 244° Southwest 271 312 7,600 -774 Descending Chicago Center
Sun 04:51:49 PM 42.3200 -87.4739 243° Southwest 271 312 7,000 -242 Descending Chicago Center
Sun 04:52:51 PM 42.2908 -87.5656 247° West 262 302 7,100 -48 Climbing Chicago Center
Sun 04:53:53 PM 42.2392 -87.6308 223° Southwest 262 302 6,900 -774 Descending Chicago Center
Sun 04:54:55 PM 42.1833 -87.6892 218° Southwest 258 297 5,500 -1,452 Descending Chicago Center
Sun 04:55:57 PM 42.1211 -87.7608 221° Southwest 250 288 3,900 -1,403 Descending Chicago Center
Sun 04:56:59 PM 42.0731 -87.8169 221° Southwest 241 277 2,600 -1,065 Descending Chicago Center
Sun 04:58:01 PM 42.0353 -87.8542 216° Southwest 196 226 1,700 -919 Descending Chicago Center
Sun 04:58:50 PM 42.0000 -87.8833 212° Southwest 147 169 900 -980 Descending Chicago TRACON
Sun 05:01:00 PM 41.9817 -87.9067 217° Southwest  Level Estimated

Login

Don't have an account? Register now (free) for customized features, flight alerts, and more!